createdAt,value
2023-05-25T00:06:17.268Z,54.30
2023-05-25T00:21:10.601Z,54.93
2023-05-25T00:36:01.480Z,55.18
2023-05-25T00:50:52.806Z,56.39
2023-05-25T01:05:46.063Z,56.52
2023-05-25T01:20:37.541Z,57.42
2023-05-25T01:35:29.288Z,57.16
2023-05-25T01:50:23.570Z,57.35
2023-05-25T02:05:18.178Z,57.77
2023-05-25T02:35:05.283Z,58.03
2023-05-25T02:49:56.521Z,59.69
2023-05-25T03:04:49.538Z,61.94
2023-05-25T03:19:41.797Z,63.79
2023-05-25T03:34:33.113Z,64.73
2023-05-25T03:49:25.239Z,65.59
2023-05-25T04:04:17.382Z,66.46
2023-05-25T04:19:09.897Z,66.99
2023-05-25T04:34:02.420Z,67.20
2023-05-25T04:48:53.330Z,67.09
2023-05-25T05:03:46.015Z,67.08
2023-05-25T05:18:39.691Z,66.21
2023-05-25T05:33:31.512Z,64.83
2023-05-25T05:48:25.997Z,62.64
2023-05-25T06:03:17.537Z,61.33
2023-05-25T06:18:10.881Z,60.12
2023-05-25T06:33:03.433Z,57.85
2023-05-25T06:47:55.963Z,56.85
2023-05-25T07:02:48.904Z,56.78
2023-05-25T07:17:45.951Z,56.04
2023-05-25T07:32:40.571Z,55.31
2023-05-25T07:47:34.280Z,54.32
2023-05-25T08:02:26.462Z,53.28
2023-05-25T08:17:19.819Z,52.51
2023-05-25T08:32:12.275Z,51.46
2023-05-25T08:47:06.469Z,51.34
2023-05-25T09:01:59.314Z,50.76
2023-05-25T09:16:51.175Z,50.49
2023-05-25T09:31:45.735Z,50.50
2023-05-25T09:46:38.361Z,48.97
2023-05-25T10:01:32.057Z,46.91
2023-05-25T10:16:30.024Z,45.38
2023-05-25T10:31:22.387Z,45.10
2023-05-25T10:46:14.911Z,43.51
2023-05-25T11:01:07.574Z,43.22
2023-05-25T11:16:19.284Z,42.48
2023-05-25T11:31:22.048Z,41.91
2023-05-25T12:01:19.373Z,40.88
2023-05-25T12:16:16.656Z,38.28
2023-05-25T12:31:20.248Z,37.42
2023-05-25T12:46:16.480Z,37.94
2023-05-25T13:01:09.599Z,36.65
2023-05-25T13:30:57.750Z,35.83
2023-05-25T13:45:53.349Z,35.92
2023-05-25T14:01:18.551Z,35.65
2023-05-25T14:16:11.840Z,35.28
2023-05-25T14:31:08.214Z,33.23
2023-05-25T15:00:59.831Z,33.39
2023-05-25T15:15:56.965Z,33.52
2023-05-25T15:46:08.743Z,32.30
2023-05-25T16:01:15.880Z,30.62
2023-05-25T16:16:08.431Z,31.28
2023-05-25T16:30:53.772Z,33.19
2023-05-25T16:45:41.029Z,34.71
2023-05-25T17:30:14.701Z,36.83
2023-05-25T18:00:06.730Z,34.46
2023-05-25T18:29:50.137Z,37.29
2023-05-25T20:14:14.483Z,47.87
2023-05-25T20:29:05.406Z,48.68
2023-05-25T20:43:57.103Z,49.83
2023-05-25T20:58:53.740Z,50.92
2023-05-25T21:13:42.780Z,51.84
2023-05-25T21:28:34.854Z,52.63
2023-05-25T21:43:26.793Z,52.98
2023-05-25T21:58:18.904Z,53.13
2023-05-25T22:13:10.456Z,53.99
2023-05-25T22:28:13.658Z,54.39
2023-05-25T22:43:05.127Z,55.06
2023-05-25T22:57:56.821Z,55.38
2023-05-25T23:12:48.545Z,56.34
2023-05-25T23:27:40.482Z,57.36
2023-05-25T23:42:31.386Z,58.37
2023-05-25T23:57:23.478Z,59.45
